Kathmandu, Nepal
Current Conditions -  °F | °C
As of 2:50 PM on Friday 28 Nov 2014 (Local Time) from VNKT Reporting Station
Few Clouds Few Clouds  
Wind Chill: 17°   Ceiling: Unl
Heat Index: 17°   Visibility: 4mi
Dew Point:   Wind: 7mph
Humidity: 55%   Direction: 250°WSW
Pressure: 30"   Gusts: NA
Location:  27.71°N, 85.31°E
Report Text: VNKT 280950Z 25006KT 7000 FEW025 17/08 Q1016 NOSIG
Loading
Personal Weather Stations






























Interactive Weather Map New forecast layout! Learn more

10-Day Weather Forecast

Advertisements
Track Severe Weather on mobile